sensor_id;sensor_type;location;lat;lon;timestamp;pressure;altitude;pressure_sealevel;temperature;humidity
75852;BME280;64500;52.632;20.656;2023-11-22T00:00:17;101103.36;;;3.77;46.06
75852;BME280;64500;52.632;20.656;2023-11-22T00:03:06;101110.94;;;3.70;45.86
75852;BME280;64500;52.632;20.656;2023-11-22T00:05:33;101116.39;;;3.61;45.79
75852;BME280;64500;52.632;20.656;2023-11-22T00:08:00;101122.32;;;3.60;46.19
75852;BME280;64500;52.632;20.656;2023-11-22T00:10:27;101125.56;;;3.56;46.07
75852;BME280;64500;52.632;20.656;2023-11-22T00:12:55;101131.17;;;3.56;46.04
75852;BME280;64500;52.632;20.656;2023-11-22T00:15:22;101133.29;;;3.57;46.07
75852;BME280;64500;52.632;20.656;2023-11-22T00:17:49;101132.77;;;3.57;46.11
75852;BME280;64500;52.632;20.656;2023-11-22T00:20:16;101134.86;;;3.57;45.77
75852;BME280;64500;52.632;20.656;2023-11-22T00:22:44;101131.71;;;3.57;45.88
75852;BME280;64500;52.632;20.656;2023-11-22T00:25:11;101135.58;;;3.59;46.30
75852;BME280;64500;52.632;20.656;2023-11-22T00:27:40;101137.73;;;3.61;46.02
75852;BME280;64500;52.632;20.656;2023-11-22T00:30:07;101144.33;;;3.60;45.92
75852;BME280;64500;52.632;20.656;2023-11-22T00:32:34;101149.01;;;3.56;45.40
75852;BME280;64500;52.632;20.656;2023-11-22T00:35:02;101154.66;;;3.50;46.17
75852;BME280;64500;52.632;20.656;2023-11-22T00:37:29;101157.60;;;3.48;45.94
75852;BME280;64500;52.632;20.656;2023-11-22T00:39:56;101160.10;;;3.40;45.73
75852;BME280;64500;52.632;20.656;2023-11-22T00:42:23;101163.44;;;3.31;45.87
75852;BME280;64500;52.632;20.656;2023-11-22T00:44:49;101164.52;;;3.24;45.34
75852;BME280;64500;52.632;20.656;2023-11-22T00:47:17;101163.88;;;3.18;45.65
75852;BME280;64500;52.632;20.656;2023-11-22T00:49:44;101163.27;;;3.12;45.85
75852;BME280;64500;52.632;20.656;2023-11-22T00:52:11;101167.38;;;3.08;45.62
75852;BME280;64500;52.632;20.656;2023-11-22T00:54:40;101169.03;;;3.04;45.82
75852;BME280;64500;52.632;20.656;2023-11-22T00:57:07;101172.86;;;3.03;45.86
75852;BME280;64500;52.632;20.656;2023-11-22T00:59:34;101172.30;;;3.00;45.65
75852;BME280;64500;52.632;20.656;2023-11-22T01:02:01;101172.21;;;2.96;45.88
75852;BME280;64500;52.632;20.656;2023-11-22T01:04:29;101168.63;;;2.91;45.79
75852;BME280;64500;52.632;20.656;2023-11-22T01:06:56;101167.27;;;2.85;45.61
75852;BME280;64500;52.632;20.656;2023-11-22T01:09:23;101164.78;;;2.74;45.45
75852;BME280;64500;52.632;20.656;2023-11-22T01:11:51;101162.27;;;2.61;45.33
75852;BME280;64500;52.632;20.656;2023-11-22T01:14:18;101159.46;;;2.44;45.05
75852;BME280;64500;52.632;20.656;2023-11-22T01:16:45;101160.11;;;2.33;44.92
75852;BME280;64500;52.632;20.656;2023-11-22T01:19:12;101165.73;;;2.20;44.88
75852;BME280;64500;52.632;20.656;2023-11-22T01:21:39;101164.14;;;2.03;44.92
75852;BME280;64500;52.632;20.656;2023-11-22T01:24:06;101172.27;;;1.93;45.05
75852;BME280;64500;52.632;20.656;2023-11-22T01:26:33;101174.84;;;1.84;45.08
75852;BME280;64500;52.632;20.656;2023-11-22T01:29:00;101170.09;;;1.82;45.17
75852;BME280;64500;52.632;20.656;2023-11-22T01:31:29;101177.36;;;1.66;45.23
75852;BME280;64500;52.632;20.656;2023-11-22T01:33:55;101175.60;;;1.58;45.22
75852;BME280;64500;52.632;20.656;2023-11-22T01:36:22;101178.65;;;1.47;45.26
75852;BME280;64500;52.632;20.656;2023-11-22T01:38:52;101184.58;;;1.41;45.62
75852;BME280;64500;52.632;20.656;2023-11-22T01:41:19;101186.52;;;1.36;45.26
75852;BME280;64500;52.632;20.656;2023-11-22T01:43:46;101189.85;;;1.29;45.64
75852;BME280;64500;52.632;20.656;2023-11-22T01:46:23;101192.70;;;1.19;45.52
75852;BME280;64500;52.632;20.656;2023-11-22T01:48:52;101194.45;;;1.13;45.62
75852;BME280;64500;52.632;20.656;2023-11-22T01:51:21;101192.14;;;1.04;45.84
75852;BME280;64500;52.632;20.656;2023-11-22T01:53:49;101188.64;;;0.97;45.78
75852;BME280;64500;52.632;20.656;2023-11-22T01:56:17;101194.00;;;0.90;45.91
75852;BME280;64500;52.632;20.656;2023-11-22T01:58:44;101194.89;;;0.85;45.97
75852;BME280;64500;52.632;20.656;2023-11-22T02:01:12;101195.16;;;0.82;45.88
75852;BME280;64500;52.632;20.656;2023-11-22T02:03:39;101199.16;;;0.76;45.88
75852;BME280;64500;52.632;20.656;2023-11-22T02:06:07;101203.07;;;0.72;46.14
75852;BME280;64500;52.632;20.656;2023-11-22T02:08:36;101203.36;;;0.64;45.97
75852;BME280;64500;52.632;20.656;2023-11-22T02:11:02;101207.27;;;0.55;45.99
75852;BME280;64500;52.632;20.656;2023-11-22T02:13:31;101215.79;;;0.49;46.08
75852;BME280;64500;52.632;20.656;2023-11-22T02:15:58;101210.39;;;0.43;46.26
75852;BME280;64500;52.632;20.656;2023-11-22T02:18:28;101208.70;;;0.39;46.30
75852;BME280;64500;52.632;20.656;2023-11-22T02:20:56;101213.50;;;0.31;46.26
75852;BME280;64500;52.632;20.656;2023-11-22T02:23:23;101213.18;;;0.26;46.33
75852;BME280;64500;52.632;20.656;2023-11-22T02:25:50;101213.00;;;0.20;46.31
75852;BME280;64500;52.632;20.656;2023-11-22T02:28:17;101211.83;;;0.16;46.32
75852;BME280;64500;52.632;20.656;2023-11-22T02:30:44;101216.94;;;0.13;46.44
75852;BME280;64500;52.632;20.656;2023-11-22T02:33:11;101221.98;;;0.13;46.58
75852;BME280;64500;52.632;20.656;2023-11-22T02:35:38;101226.42;;;0.10;46.54
75852;BME280;64500;52.632;20.656;2023-11-22T02:38:05;101226.82;;;0.06;46.63
75852;BME280;64500;52.632;20.656;2023-11-22T02:40:33;101231.84;;;0.00;46.60
75852;BME280;64500;52.632;20.656;2023-11-22T02:43:00;101232.78;;;-0.03;46.46
75852;BME280;64500;52.632;20.656;2023-11-22T02:45:32;101234.70;;;-0.07;46.58
75852;BME280;64500;52.632;20.656;2023-11-22T02:47:59;101243.26;;;-0.12;46.83
75852;BME280;64500;52.632;20.656;2023-11-22T02:50:28;101250.61;;;-0.15;46.74
75852;BME280;64500;52.632;20.656;2023-11-22T02:52:55;101255.65;;;-0.21;46.66
75852;BME280;64500;52.632;20.656;2023-11-22T02:55:22;101264.55;;;-0.25;46.84
75852;BME280;64500;52.632;20.656;2023-11-22T02:57:49;101265.83;;;-0.29;46.87
75852;BME280;64500;52.632;20.656;2023-11-22T03:00:16;101272.77;;;-0.33;46.95
75852;BME280;64500;52.632;20.656;2023-11-22T03:02:46;101278.66;;;-0.39;46.88
75852;BME280;64500;52.632;20.656;2023-11-22T03:05:13;101281.61;;;-0.44;46.95
75852;BME280;64500;52.632;20.656;2023-11-22T03:07:41;101283.28;;;-0.46;47.11
75852;BME280;64500;52.632;20.656;2023-11-22T03:10:09;101291.77;;;-0.47;47.43
75852;BME280;64500;52.632;20.656;2023-11-22T03:12:36;101299.70;;;-0.48;47.42
75852;BME280;64500;52.632;20.656;2023-11-22T03:15:04;101295.70;;;-0.48;47.58
75852;BME280;64500;52.632;20.656;2023-11-22T03:17:31;101294.27;;;-0.49;47.62
75852;BME280;64500;52.632;20.656;2023-11-22T03:19:59;101293.62;;;-0.48;47.43
75852;BME280;64500;52.632;20.656;2023-11-22T03:22:28;101293.11;;;-0.48;47.83
75852;BME280;64500;52.632;20.656;2023-11-22T03:24:57;101300.14;;;-0.51;47.71
75852;BME280;64500;52.632;20.656;2023-11-22T03:27:25;101305.09;;;-0.53;47.55
75852;BME280;64500;52.632;20.656;2023-11-22T03:29:52;101306.80;;;-0.53;47.81
75852;BME280;64500;52.632;20.656;2023-11-22T03:32:19;101311.31;;;-0.54;48.04
75852;BME280;64500;52.632;20.656;2023-11-22T03:34:46;101319.25;;;-0.55;47.87
75852;BME280;64500;52.632;20.656;2023-11-22T03:37:13;101326.17;;;-0.56;47.62
75852;BME280;64500;52.632;20.656;2023-11-22T03:39:40;101332.88;;;-0.57;47.70
75852;BME280;64500;52.632;20.656;2023-11-22T03:42:15;101339.27;;;-0.59;47.77
75852;BME280;64500;52.632;20.656;2023-11-22T03:44:45;101338.67;;;-0.60;47.75
75852;BME280;64500;52.632;20.656;2023-11-22T03:47:14;101341.77;;;-0.62;48.00
75852;BME280;64500;52.632;20.656;2023-11-22T03:49:42;101345.11;;;-0.65;47.80
75852;BME280;64500;52.632;20.656;2023-11-22T03:52:12;101350.77;;;-0.67;47.98
75852;BME280;64500;52.632;20.656;2023-11-22T03:54:40;101351.55;;;-0.70;47.90
75852;BME280;64500;52.632;20.656;2023-11-22T03:57:07;101349.04;;;-0.72;47.92
75852;BME280;64500;52.632;20.656;2023-11-22T03:59:34;101348.50;;;-0.77;47.66
75852;BME280;64500;52.632;20.656;2023-11-22T04:02:02;101355.79;;;-0.81;47.70
75852;BME280;64500;52.632;20.656;2023-11-22T04:04:29;101354.70;;;-0.83;47.88
75852;BME280;64500;52.632;20.656;2023-11-22T04:06:57;101370.06;;;-0.85;47.93
75852;BME280;64500;52.632;20.656;2023-11-22T04:09:24;101373.98;;;-0.87;47.84
75852;BME280;64500;52.632;20.656;2023-11-22T04:11:51;101377.55;;;-0.89;48.07
75852;BME280;64500;52.632;20.656;2023-11-22T04:14:18;101383.21;;;-0.91;47.90
75852;BME280;64500;52.632;20.656;2023-11-22T04:16:47;101388.95;;;-0.95;48.15
75852;BME280;64500;52.632;20.656;2023-11-22T04:19:14;101396.06;;;-0.99;47.89
75852;BME280;64500;52.632;20.656;2023-11-22T04:21:41;101390.48;;;-1.04;48.02
75852;BME280;64500;52.632;20.656;2023-11-22T04:24:08;101391.95;;;-1.07;48.41
75852;BME280;64500;52.632;20.656;2023-11-22T04:26:35;101398.94;;;-1.10;48.11
75852;BME280;64500;52.632;20.656;2023-11-22T04:29:03;101401.21;;;-1.15;48.48
75852;BME280;64500;52.632;20.656;2023-11-22T04:31:31;101397.39;;;-1.19;48.41
75852;BME280;64500;52.632;20.656;2023-11-22T04:33:58;101399.62;;;-1.19;48.36
75852;BME280;64500;52.632;20.656;2023-11-22T04:36:26;101402.55;;;-1.20;48.08
75852;BME280;64500;52.632;20.656;2023-11-22T04:38:53;101405.07;;;-1.26;48.20
75852;BME280;64500;52.632;20.656;2023-11-22T04:41:20;101403.73;;;-1.34;48.21
75852;BME280;64500;52.632;20.656;2023-11-22T04:43:47;101404.54;;;-1.35;48.60
75852;BME280;64500;52.632;20.656;2023-11-22T04:46:14;101398.48;;;-1.35;48.77
75852;BME280;64500;52.632;20.656;2023-11-22T04:48:41;101398.40;;;-1.41;48.30
75852;BME280;64500;52.632;20.656;2023-11-22T04:51:11;101410.59;;;-1.48;48.41
75852;BME280;64500;52.632;20.656;2023-11-22T04:53:38;101413.43;;;-1.55;48.03
75852;BME280;64500;52.632;20.656;2023-11-22T04:56:06;101411.60;;;-1.62;48.31
75852;BME280;64500;52.632;20.656;2023-11-22T04:58:33;101415.44;;;-1.70;48.51
75852;BME280;64500;52.632;20.656;2023-11-22T05:01:00;101419.54;;;-1.75;48.45
75852;BME280;64500;52.632;20.656;2023-11-22T05:03:28;101420.51;;;-1.81;48.33
75852;BME280;64500;52.632;20.656;2023-11-22T05:05:55;101414.29;;;-1.85;48.27
75852;BME280;64500;52.632;20.656;2023-11-22T05:08:22;101410.79;;;-1.89;48.59
75852;BME280;64500;52.632;20.656;2023-11-22T05:10:49;101419.90;;;-1.95;48.46
75852;BME280;64500;52.632;20.656;2023-11-22T05:13:16;101423.23;;;-1.98;48.50
75852;BME280;64500;52.632;20.656;2023-11-22T05:15:42;101430.60;;;-2.00;48.51
75852;BME280;64500;52.632;20.656;2023-11-22T05:18:09;101435.63;;;-2.04;48.44
75852;BME280;64500;52.632;20.656;2023-11-22T05:20:36;101439.45;;;-2.08;48.49
75852;BME280;64500;52.632;20.656;2023-11-22T05:23:03;101440.86;;;-2.11;48.85
75852;BME280;64500;52.632;20.656;2023-11-22T05:25:31;101441.50;;;-2.16;48.59
75852;BME280;64500;52.632;20.656;2023-11-22T05:27:58;101438.52;;;-2.21;48.61
75852;BME280;64500;52.632;20.656;2023-11-22T05:30:25;101444.64;;;-2.24;48.83
75852;BME280;64500;52.632;20.656;2023-11-22T05:32:52;101452.52;;;-2.21;48.27
75852;BME280;64500;52.632;20.656;2023-11-22T05:35:19;101452.45;;;-2.35;48.46
75852;BME280;64500;52.632;20.656;2023-11-22T05:37:46;101452.36;;;-2.41;48.26
75852;BME280;64500;52.632;20.656;2023-11-22T05:40:13;101450.59;;;-2.49;48.57
75852;BME280;64500;52.632;20.656;2023-11-22T05:42:42;101453.06;;;-2.56;48.54
75852;BME280;64500;52.632;20.656;2023-11-22T05:45:10;101457.69;;;-2.57;48.71
75852;BME280;64500;52.632;20.656;2023-11-22T05:47:37;101460.30;;;-2.64;48.89
75852;BME280;64500;52.632;20.656;2023-11-22T05:50:05;101455.80;;;-2.67;49.01
75852;BME280;64500;52.632;20.656;2023-11-22T05:52:32;101455.16;;;-2.74;48.90
75852;BME280;64500;52.632;20.656;2023-11-22T05:54:59;101452.10;;;-2.80;48.67
75852;BME280;64500;52.632;20.656;2023-11-22T05:57:30;101457.50;;;-2.87;49.02
75852;BME280;64500;52.632;20.656;2023-11-22T05:59:57;101463.98;;;-2.93;48.67
75852;BME280;64500;52.632;20.656;2023-11-22T06:02:24;101467.88;;;-2.98;48.83
75852;BME280;64500;52.632;20.656;2023-11-22T06:04:51;101480.19;;;-3.00;48.95
75852;BME280;64500;52.632;20.656;2023-11-22T06:07:18;101483.42;;;-2.98;49.21
75852;BME280;64500;52.632;20.656;2023-11-22T06:09:45;101487.21;;;-2.95;49.43
75852;BME280;64500;52.632;20.656;2023-11-22T06:12:11;101486.91;;;-2.90;49.46
75852;BME280;64500;52.632;20.656;2023-11-22T06:14:38;101488.69;;;-2.86;49.55
75852;BME280;64500;52.632;20.656;2023-11-22T06:17:05;101486.65;;;-2.81;49.69
75852;BME280;64500;52.632;20.656;2023-11-22T06:19:32;101487.39;;;-2.77;49.53
75852;BME280;64500;52.632;20.656;2023-11-22T06:21:59;101489.23;;;-2.74;49.78
75852;BME280;64500;52.632;20.656;2023-11-22T06:24:28;101494.73;;;-2.75;49.62
75852;BME280;64500;52.632;20.656;2023-11-22T06:26:55;101502.68;;;-2.75;49.43
75852;BME280;64500;52.632;20.656;2023-11-22T06:29:22;101506.60;;;-2.76;49.47
75852;BME280;64500;52.632;20.656;2023-11-22T06:31:49;101505.64;;;-2.78;49.60
75852;BME280;64500;52.632;20.656;2023-11-22T06:34:15;101509.48;;;-2.78;49.68
75852;BME280;64500;52.632;20.656;2023-11-22T06:36:42;101515.29;;;-2.76;49.69
75852;BME280;64500;52.632;20.656;2023-11-22T06:39:10;101526.14;;;-2.73;49.47
75852;BME280;64500;52.632;20.656;2023-11-22T06:41:41;101533.23;;;-2.69;49.60
75852;BME280;64500;52.632;20.656;2023-11-22T06:44:08;101531.76;;;-2.68;49.59
75852;BME280;64500;52.632;20.656;2023-11-22T06:46:36;101529.20;;;-2.63;49.79
75852;BME280;64500;52.632;20.656;2023-11-22T06:49:03;101529.43;;;-2.55;49.99
75852;BME280;64500;52.632;20.656;2023-11-22T06:51:31;101537.70;;;-2.49;49.82
75852;BME280;64500;52.632;20.656;2023-11-22T06:53:58;101542.12;;;-2.43;50.19
75852;BME280;64500;52.632;20.656;2023-11-22T06:56:25;101550.93;;;-2.35;49.83
75852;BME280;64500;52.632;20.656;2023-11-22T06:58:52;101559.83;;;-2.30;49.87
75852;BME280;64500;52.632;20.656;2023-11-22T07:01:22;101563.64;;;-2.23;49.95
75852;BME280;64500;52.632;20.656;2023-11-22T07:03:50;101571.55;;;-2.13;50.09
75852;BME280;64500;52.632;20.656;2023-11-22T07:06:18;101586.72;;;-2.00;50.39
75852;BME280;64500;52.632;20.656;2023-11-22T07:08:46;101600.39;;;-1.85;50.71
75852;BME280;64500;52.632;20.656;2023-11-22T07:11:12;101597.70;;;-1.68;50.86
75852;BME280;64500;52.632;20.656;2023-11-22T07:13:40;101597.05;;;-1.51;50.97
75852;BME280;64500;52.632;20.656;2023-11-22T07:16:07;101609.09;;;-1.38;50.84
75852;BME280;64500;52.632;20.656;2023-11-22T07:18:34;101621.89;;;-1.23;51.09
75852;BME280;64500;52.632;20.656;2023-11-22T07:21:01;101611.20;;;-1.05;50.86
75852;BME280;64500;52.632;20.656;2023-11-22T07:23:28;101601.35;;;-0.92;50.63
75852;BME280;64500;52.632;20.656;2023-11-22T07:25:55;101608.67;;;-0.78;50.54
75852;BME280;64500;52.632;20.656;2023-11-22T07:28:22;101615.77;;;-0.66;50.77
75852;BME280;64500;52.632;20.656;2023-11-22T07:30:49;101621.64;;;-0.54;51.04
75852;BME280;64500;52.632;20.656;2023-11-22T07:33:16;101614.70;;;-0.41;50.80
75852;BME280;64500;52.632;20.656;2023-11-22T07:35:43;101611.49;;;-0.30;50.78
75852;BME280;64500;52.632;20.656;2023-11-22T07:38:10;101614.20;;;-0.19;50.80
75852;BME280;64500;52.632;20.656;2023-11-22T07:40:38;101613.62;;;-0.06;50.70
75852;BME280;64500;52.632;20.656;2023-11-22T07:43:05;101604.83;;;0.04;50.63
75852;BME280;64500;52.632;20.656;2023-11-22T07:45:32;101601.59;;;0.15;50.60
75852;BME280;64500;52.632;20.656;2023-11-22T07:47:59;101605.45;;;0.26;50.47
75852;BME280;64500;52.632;20.656;2023-11-22T07:50:26;101611.20;;;0.35;50.30
75852;BME280;64500;52.632;20.656;2023-11-22T07:52:53;101613.13;;;0.45;50.49
75852;BME280;64500;52.632;20.656;2023-11-22T07:55:21;101610.92;;;0.52;50.36
75852;BME280;64500;52.632;20.656;2023-11-22T07:57:49;101612.41;;;0.59;50.43
75852;BME280;64500;52.632;20.656;2023-11-22T08:00:17;101628.38;;;0.68;50.26
75852;BME280;64500;52.632;20.656;2023-11-22T08:02:46;101640.38;;;0.77;50.25
75852;BME280;64500;52.632;20.656;2023-11-22T08:05:13;101635.45;;;0.85;50.41
75852;BME280;64500;52.632;20.656;2023-11-22T08:07:42;101630.52;;;0.94;50.38
75852;BME280;64500;52.632;20.656;2023-11-22T08:10:12;101628.16;;;1.06;50.21
75852;BME280;64500;52.632;20.656;2023-11-22T08:12:45;101635.50;;;1.17;50.34
75852;BME280;64500;52.632;20.656;2023-11-22T08:15:14;101641.48;;;1.24;50.42
75852;BME280;64500;52.632;20.656;2023-11-22T08:17:41;101633.39;;;1.31;50.35
75852;BME280;64500;52.632;20.656;2023-11-22T08:20:09;101644.88;;;1.42;50.42
75852;BME280;64500;52.632;20.656;2023-11-22T08:22:44;101652.13;;;1.50;50.19
75852;BME280;64500;52.632;20.656;2023-11-22T08:25:13;101652.67;;;1.57;50.08
75852;BME280;64500;52.632;20.656;2023-11-22T08:27:40;101648.37;;;1.69;50.17
75852;BME280;64500;52.632;20.656;2023-11-22T08:30:10;101649.80;;;1.75;49.72
75852;BME280;64500;52.632;20.656;2023-11-22T08:32:42;101650.12;;;1.85;50.02
75852;BME280;64500;52.632;20.656;2023-11-22T08:35:10;101650.02;;;1.93;49.89
75852;BME280;64500;52.632;20.656;2023-11-22T08:37:39;101659.05;;;2.03;49.92
75852;BME280;64500;52.632;20.656;2023-11-22T08:40:09;101664.83;;;2.10;49.73
75852;BME280;64500;52.632;20.656;2023-11-22T08:42:41;101669.92;;;2.17;49.66
75852;BME280;64500;52.632;20.656;2023-11-22T08:45:08;101675.86;;;2.23;49.82
75852;BME280;64500;52.632;20.656;2023-11-22T08:47:35;101675.77;;;2.31;49.93
75852;BME280;64500;52.632;20.656;2023-11-22T08:50:03;101680.20;;;2.39;49.63
75852;BME280;64500;52.632;20.656;2023-11-22T08:52:32;101686.52;;;2.47;49.88
75852;BME280;64500;52.632;20.656;2023-11-22T08:54:59;101686.36;;;2.53;49.63
75852;BME280;64500;52.632;20.656;2023-11-22T08:57:27;101686.60;;;2.61;49.46
75852;BME280;64500;52.632;20.656;2023-11-22T08:59:54;101690.52;;;2.70;49.40
75852;BME280;64500;52.632;20.656;2023-11-22T09:02:21;101687.25;;;2.77;49.06
75852;BME280;64500;52.632;20.656;2023-11-22T09:04:49;101690.34;;;2.82;49.27
75852;BME280;64500;52.632;20.656;2023-11-22T09:07:16;101680.52;;;2.87;49.08
75852;BME280;64500;52.632;20.656;2023-11-22T09:09:43;101681.26;;;2.95;49.08
75852;BME280;64500;52.632;20.656;2023-11-22T09:12:10;101675.55;;;3.03;49.31
75852;BME280;64500;52.632;20.656;2023-11-22T09:14:40;101668.56;;;3.09;49.13
75852;BME280;64500;52.632;20.656;2023-11-22T09:17:09;101661.96;;;3.18;49.09
75852;BME280;64500;52.632;20.656;2023-11-22T09:19:36;101661.20;;;3.22;49.22
75852;BME280;64500;52.632;20.656;2023-11-22T09:22:04;101657.52;;;3.28;49.50
75852;BME280;64500;52.632;20.656;2023-11-22T09:24:35;101649.24;;;3.40;49.03
75852;BME280;64500;52.632;20.656;2023-11-22T09:27:04;101643.36;;;3.49;49.12
75852;BME280;64500;52.632;20.656;2023-11-22T09:29:36;101634.30;;;3.57;48.81
75852;BME280;64500;52.632;20.656;2023-11-22T09:32:04;101631.61;;;3.61;48.64
75852;BME280;64500;52.632;20.656;2023-11-22T09:34:32;101636.97;;;3.66;48.47
75852;BME280;64500;52.632;20.656;2023-11-22T09:36:59;101648.69;;;3.73;48.60
75852;BME280;64500;52.632;20.656;2023-11-22T09:39:25;101645.64;;;3.77;48.51
75852;BME280;64500;52.632;20.656;2023-11-22T09:41:52;101638.04;;;3.81;48.30
75852;BME280;64500;52.632;20.656;2023-11-22T09:44:20;101633.95;;;3.87;48.03
75852;BME280;64500;52.632;20.656;2023-11-22T09:46:51;101632.71;;;3.93;47.95
75852;BME280;64500;52.632;20.656;2023-11-22T09:49:20;101638.11;;;3.99;48.05
75852;BME280;64500;52.632;20.656;2023-11-22T09:51:54;101636.13;;;4.05;48.25
75852;BME280;64500;52.632;20.656;2023-11-22T09:54:23;101630.79;;;4.08;47.80
75852;BME280;64500;52.632;20.656;2023-11-22T09:56:59;101637.73;;;4.14;47.70
75852;BME280;64500;52.632;20.656;2023-11-22T09:59:28;101641.50;;;4.17;47.73
75852;BME280;64500;52.632;20.656;2023-11-22T10:01:56;101639.60;;;4.19;47.89
75852;BME280;64500;52.632;20.656;2023-11-22T10:04:23;101638.61;;;4.22;47.84
75852;BME280;64500;52.632;20.656;2023-11-22T10:06:51;101634.73;;;4.29;48.00
75852;BME280;64500;52.632;20.656;2023-11-22T10:09:19;101630.30;;;4.34;47.38
75852;BME280;64500;52.632;20.656;2023-11-22T10:11:46;101637.02;;;4.38;47.27
75852;BME280;64500;52.632;20.656;2023-11-22T10:14:22;101642.36;;;4.42;47.31
75852;BME280;64500;52.632;20.656;2023-11-22T10:16:58;101647.02;;;4.48;46.90
75852;BME280;64500;52.632;20.656;2023-11-22T10:19:26;101639.93;;;4.51;46.99
75852;BME280;64500;52.632;20.656;2023-11-22T10:22:05;101638.14;;;4.58;46.93
75852;BME280;64500;52.632;20.656;2023-11-22T10:24:32;101643.89;;;4.64;47.00
75852;BME280;64500;52.632;20.656;2023-11-22T10:27:01;101642.76;;;4.70;46.98
75852;BME280;64500;52.632;20.656;2023-11-22T10:29:28;101635.27;;;4.72;46.81
75852;BME280;64500;52.632;20.656;2023-11-22T10:31:55;101640.92;;;4.75;46.67
75852;BME280;64500;52.632;20.656;2023-11-22T10:34:24;101642.23;;;4.78;45.86
75852;BME280;64500;52.632;20.656;2023-11-22T10:36:52;101641.11;;;4.84;46.25
75852;BME280;64500;52.632;20.656;2023-11-22T10:39:20;101643.54;;;4.92;46.58
75852;BME280;64500;52.632;20.656;2023-11-22T10:41:50;101636.87;;;5.00;46.51
75852;BME280;64500;52.632;20.656;2023-11-22T10:44:20;101633.20;;;5.11;46.64
75852;BME280;64500;52.632;20.656;2023-11-22T10:46:48;101636.20;;;5.22;46.77
75852;BME280;64500;52.632;20.656;2023-11-22T10:49:17;101625.99;;;5.29;46.43
75852;BME280;64500;52.632;20.656;2023-11-22T10:51:47;101622.05;;;5.35;46.51
75852;BME280;64500;52.632;20.656;2023-11-22T10:54:20;101618.66;;;5.41;46.47
75852;BME280;64500;52.632;20.656;2023-11-22T10:56:54;101611.34;;;5.44;46.21
75852;BME280;64500;52.632;20.656;2023-11-22T10:59:25;101595.98;;;5.49;46.47
75852;BME280;64500;52.632;20.656;2023-11-22T11:01:56;101584.15;;;5.54;46.16
75852;BME280;64500;52.632;20.656;2023-11-22T11:04:51;101576.96;;;5.56;46.05
75852;BME280;64500;52.632;20.656;2023-11-22T11:07:21;101573.34;;;5.59;46.04
75852;BME280;64500;52.632;20.656;2023-11-22T11:09:50;101579.36;;;5.63;46.03
75852;BME280;64500;52.632;20.656;2023-11-22T11:12:17;101579.05;;;5.66;46.08
75852;BME280;64500;52.632;20.656;2023-11-22T11:14:45;101575.27;;;5.70;46.14
75852;BME280;64500;52.632;20.656;2023-11-22T11:17:14;101568.66;;;5.75;46.09
75852;BME280;64500;52.632;20.656;2023-11-22T11:19:41;101569.56;;;5.75;45.97
75852;BME280;64500;52.632;20.656;2023-11-22T11:22:09;101584.35;;;5.80;45.93
75852;BME280;64500;52.632;20.656;2023-11-22T11:24:40;101591.05;;;5.82;45.76
75852;BME280;64500;52.632;20.656;2023-11-22T11:27:11;101597.95;;;5.86;45.57
75852;BME280;64500;52.632;20.656;2023-11-22T11:29:38;101603.23;;;5.86;45.08
75852;BME280;64500;52.632;20.656;2023-11-22T11:32:10;101599.63;;;5.80;45.08
75852;BME280;64500;52.632;20.656;2023-11-22T11:34:50;101590.19;;;5.84;45.26
75852;BME280;64500;52.632;20.656;2023-11-22T11:37:20;101592.80;;;5.82;44.65
75852;BME280;64500;52.632;20.656;2023-11-22T11:39:47;101595.54;;;5.77;44.58
75852;BME280;64500;52.632;20.656;2023-11-22T11:42:15;101594.02;;;5.81;44.73
75852;BME280;64500;52.632;20.656;2023-11-22T11:45:03;101603.23;;;5.75;44.03
75852;BME280;64500;52.632;20.656;2023-11-22T11:47:33;101601.36;;;5.69;44.21
75852;BME280;64500;52.632;20.656;2023-11-22T11:50:00;101599.55;;;5.75;44.79
75852;BME280;64500;52.632;20.656;2023-11-22T11:52:28;101601.22;;;5.82;44.26
75852;BME280;64500;52.632;20.656;2023-11-22T11:54:57;101612.11;;;5.83;44.23
75852;BME280;64500;52.632;20.656;2023-11-22T11:57:24;101610.05;;;5.96;44.68
75852;BME280;64500;52.632;20.656;2023-11-22T11:59:51;101614.79;;;6.08;44.23
75852;BME280;64500;52.632;20.656;2023-11-22T12:02:21;101621.56;;;6.15;43.98
75852;BME280;64500;52.632;20.656;2023-11-22T12:04:49;101626.31;;;6.16;43.10
75852;BME280;64500;52.632;20.656;2023-11-22T12:07:16;101626.14;;;6.28;43.90
75852;BME280;64500;52.632;20.656;2023-11-22T12:09:43;101613.77;;;6.50;44.20
75852;BME280;64500;52.632;20.656;2023-11-22T12:12:10;101602.39;;;6.68;44.29
75852;BME280;64500;52.632;20.656;2023-11-22T12:14:37;101597.27;;;6.83;44.28
75852;BME280;64500;52.632;20.656;2023-11-22T12:17:04;101600.40;;;6.97;44.16
75852;BME280;64500;52.632;20.656;2023-11-22T12:19:34;101606.92;;;6.99;43.31
75852;BME280;64500;52.632;20.656;2023-11-22T12:22:01;101602.36;;;7.01;43.68
75852;BME280;64500;52.632;20.656;2023-11-22T12:24:29;101595.45;;;7.12;43.90
75852;BME280;64500;52.632;20.656;2023-11-22T12:26:56;101602.55;;;7.19;43.63
75852;BME280;64500;52.632;20.656;2023-11-22T12:29:23;101608.92;;;7.23;43.30
75852;BME280;64500;52.632;20.656;2023-11-22T12:31:51;101602.59;;;7.23;42.94
75852;BME280;64500;52.632;20.656;2023-11-22T12:34:19;101603.64;;;7.22;43.17
75852;BME280;64500;52.632;20.656;2023-11-22T12:36:50;101608.79;;;7.10;42.36
75852;BME280;64500;52.632;20.656;2023-11-22T12:39:20;101598.81;;;6.96;42.43
75852;BME280;64500;52.632;20.656;2023-11-22T12:41:49;101596.95;;;6.88;42.79
75852;BME280;64500;52.632;20.656;2023-11-22T12:44:17;101605.66;;;6.78;42.38
75852;BME280;64500;52.632;20.656;2023-11-22T12:46:54;101617.11;;;6.65;42.19
75852;BME280;64500;52.632;20.656;2023-11-22T12:49:26;101626.27;;;6.53;42.10